createdAt,value
2018-06-28T00:00:44.628Z,17.70
2018-06-28T00:02:47.708Z,17.70
2018-06-28T00:04:50.967Z,17.60
2018-06-28T00:06:54.068Z,17.60
2018-06-28T00:08:57.306Z,17.60
2018-06-28T00:11:00.268Z,17.60
2018-06-28T00:13:03.536Z,17.50
2018-06-28T00:15:06.645Z,17.50
2018-06-28T00:17:09.728Z,17.50
2018-06-28T00:19:12.808Z,17.50
2018-06-28T00:21:15.896Z,17.40
2018-06-28T00:23:18.992Z,17.40
2018-06-28T00:25:22.144Z,17.40
2018-06-28T00:27:25.237Z,17.40
2018-06-28T00:29:28.348Z,17.40
2018-06-28T00:31:31.460Z,17.40
2018-06-28T00:33:34.560Z,17.40
2018-06-28T00:35:37.664Z,17.40
2018-06-28T00:37:40.764Z,17.30
2018-06-28T00:39:43.847Z,17.30
2018-06-28T00:41:46.920Z,17.30
2018-06-28T00:43:50.021Z,17.20
2018-06-28T00:45:53.118Z,17.20
2018-06-28T00:47:56.240Z,17.20
2018-06-28T00:49:59.349Z,17.20
2018-06-28T00:52:02.446Z,17.20
2018-06-28T00:54:05.597Z,17.10
2018-06-28T00:56:08.728Z,17.10
2018-06-28T00:58:11.886Z,17.10
2018-06-28T01:00:15.020Z,17.10
2018-06-28T01:02:18.124Z,17.10
2018-06-28T01:04:21.245Z,17.10
2018-06-28T01:06:24.386Z,17.00
2018-06-28T01:08:27.480Z,17.00
2018-06-28T01:10:30.605Z,17.00
2018-06-28T01:12:34.421Z,17.00
2018-06-28T01:14:37.540Z,16.90
2018-06-28T01:16:40.649Z,16.90
2018-06-28T01:18:43.757Z,16.90
2018-06-28T01:20:46.876Z,16.80
2018-06-28T01:22:49.976Z,16.80
2018-06-28T01:24:53.100Z,16.70
2018-06-28T01:26:56.206Z,16.70
2018-06-28T01:28:59.589Z,16.70
2018-06-28T01:31:02.696Z,16.60
2018-06-28T01:33:06.007Z,16.60
2018-06-28T01:35:09.125Z,16.50
2018-06-28T01:37:13.211Z,16.50
2018-06-28T01:39:16.295Z,16.50
2018-06-28T01:41:19.392Z,16.50
2018-06-28T01:43:35.453Z,16.40
2018-06-28T01:45:38.540Z,16.30
2018-06-28T01:47:41.673Z,16.30
2018-06-28T01:49:44.781Z,16.30
2018-06-28T01:51:47.945Z,16.20
2018-06-28T01:55:54.384Z,16.20
2018-06-28T01:57:57.468Z,16.10
2018-06-28T02:00:00.556Z,16.10
2018-06-28T02:02:03.672Z,16.10
2018-06-28T02:04:06.824Z,16.10
2018-06-28T02:06:09.896Z,16.00
2018-06-28T02:08:12.997Z,16.00
2018-06-28T02:10:16.064Z,15.90
2018-06-28T02:12:19.174Z,15.90
2018-06-28T02:14:22.239Z,15.90
2018-06-28T02:16:25.324Z,15.80
2018-06-28T02:18:28.423Z,15.80
2018-06-28T02:20:31.526Z,15.80
2018-06-28T02:22:34.624Z,15.80
2018-06-28T02:24:37.756Z,15.70
2018-06-28T02:26:40.876Z,15.70
2018-06-28T02:28:43.968Z,15.70
2018-06-28T02:30:47.056Z,15.70
2018-06-28T02:34:53.213Z,15.60
2018-06-28T02:36:56.307Z,15.60
2018-06-28T02:38:59.392Z,15.50
2018-06-28T02:41:02.522Z,15.50
2018-06-28T02:43:05.743Z,15.50
2018-06-28T02:45:08.858Z,15.40
2018-06-28T02:47:11.944Z,15.40
2018-06-28T02:49:15.028Z,15.40
2018-06-28T02:51:18.133Z,15.40
2018-06-28T02:53:21.268Z,15.30
2018-06-28T02:55:24.400Z,15.40
2018-06-28T02:57:27.727Z,15.30
2018-06-28T02:59:30.816Z,15.30
2018-06-28T03:01:33.933Z,15.30
2018-06-28T03:03:37.280Z,15.30
2018-06-28T03:05:40.392Z,15.20
2018-06-28T03:07:43.468Z,15.20
2018-06-28T03:09:46.564Z,15.20
2018-06-28T03:11:49.669Z,15.20
2018-06-28T03:13:52.777Z,15.20
2018-06-28T03:15:55.880Z,15.20
2018-06-28T03:17:59.191Z,15.20
2018-06-28T03:20:02.279Z,15.20
2018-06-28T03:22:05.369Z,15.10
2018-06-28T03:24:08.489Z,15.10
2018-06-28T03:26:11.600Z,15.10
2018-06-28T03:28:14.685Z,15.10
2018-06-28T03:30:17.797Z,15.10
2018-06-28T03:32:20.971Z,15.10
2018-06-28T03:34:24.065Z,15.10
2018-06-28T03:36:27.172Z,15.10
2018-06-28T03:38:30.260Z,15.10
2018-06-28T03:40:33.348Z,15.10
2018-06-28T03:42:36.464Z,15.10
2018-06-28T03:48:45.680Z,15.20
2018-06-28T03:50:48.801Z,15.20
2018-06-28T03:52:51.889Z,15.30
2018-06-28T03:54:55.480Z,15.30
2018-06-28T03:56:58.589Z,15.30
2018-06-28T03:59:01.688Z,15.40
2018-06-28T04:01:04.772Z,15.40
2018-06-28T04:03:07.901Z,15.40
2018-06-28T04:05:11.003Z,15.50
2018-06-28T04:07:14.110Z,15.50
2018-06-28T04:09:17.208Z,15.50
2018-06-28T04:11:20.316Z,15.60
2018-06-28T04:13:23.402Z,15.60
2018-06-28T04:15:26.482Z,15.70
2018-06-28T04:17:29.575Z,15.70
2018-06-28T04:19:32.657Z,15.80
2018-06-28T04:21:35.736Z,15.80
2018-06-28T04:23:38.929Z,15.90
2018-06-28T04:25:42.009Z,15.90
2018-06-28T04:27:45.117Z,16.00
2018-06-28T04:29:48.220Z,16.00
2018-06-28T04:31:51.307Z,16.10
2018-06-28T04:33:54.472Z,16.20
2018-06-28T04:35:57.586Z,16.20
2018-06-28T04:38:00.686Z,16.30
2018-06-28T04:40:03.780Z,16.40
2018-06-28T04:42:06.890Z,16.40
2018-06-28T04:44:10.000Z,16.50
2018-06-28T04:46:13.080Z,16.60
2018-06-28T04:48:16.200Z,16.60
2018-06-28T04:50:19.284Z,16.70
2018-06-28T04:52:22.400Z,16.80
2018-06-28T04:54:25.526Z,16.90
2018-06-28T04:56:28.651Z,16.90
2018-06-28T04:58:31.782Z,17.00
2018-06-28T05:00:34.991Z,17.10
2018-06-28T05:02:38.068Z,17.30
2018-06-28T05:04:41.156Z,18.00
2018-06-28T05:06:44.244Z,18.90
2018-06-28T05:08:47.368Z,19.80
2018-06-28T05:10:50.473Z,20.70
2018-06-28T05:12:53.637Z,21.70
2018-06-28T05:14:56.724Z,22.50
2018-06-28T05:16:59.877Z,23.10
2018-06-28T05:19:02.946Z,23.80
2018-06-28T05:23:08.944Z,25.10
2018-06-28T05:25:12.073Z,25.60
2018-06-28T05:27:15.177Z,26.00
2018-06-28T05:29:18.317Z,26.40
2018-06-28T05:33:24.316Z,26.90
2018-06-28T05:35:27.416Z,27.40
2018-06-28T05:37:30.524Z,27.70
2018-06-28T05:39:33.740Z,28.00
2018-06-28T05:41:36.964Z,28.20
2018-06-28T05:43:40.187Z,28.40
2018-06-28T05:47:46.230Z,28.70
2018-06-28T05:49:49.372Z,28.90
2018-06-28T05:51:52.474Z,29.30
2018-06-28T05:53:55.652Z,29.80
2018-06-28T05:55:58.774Z,29.90
2018-06-28T05:58:01.896Z,30.10
2018-06-28T06:00:05.591Z,30.40
2018-06-28T06:02:08.704Z,30.60
2018-06-28T06:04:11.815Z,30.90
2018-06-28T06:06:14.940Z,31.20
2018-06-28T06:08:18.047Z,31.40
2018-06-28T06:10:21.169Z,31.60
2018-06-28T06:12:24.249Z,31.90
2018-06-28T06:14:27.328Z,32.20
2018-06-28T06:16:30.424Z,32.60
2018-06-28T06:18:33.516Z,32.90
2018-06-28T06:20:36.658Z,33.20
2018-06-28T06:22:39.784Z,33.20
2018-06-28T06:24:42.917Z,33.30
2018-06-28T06:26:46.021Z,33.60
2018-06-28T06:28:49.136Z,33.80
2018-06-28T06:30:52.220Z,33.90
2018-06-28T06:32:55.359Z,33.90
2018-06-28T06:34:58.497Z,33.50
2018-06-28T06:37:01.649Z,33.50
2018-06-28T06:39:07.842Z,33.80
2018-06-28T06:41:10.960Z,34.10
2018-06-28T06:43:14.060Z,34.20
2018-06-28T06:45:17.188Z,34.10
2018-06-28T06:47:20.512Z,34.30
2018-06-28T06:49:23.613Z,34.00
2018-06-28T06:51:26.704Z,33.40
2018-06-28T06:53:29.796Z,33.40
2018-06-28T06:55:32.889Z,33.70
2018-06-28T06:57:36.004Z,33.80
2018-06-28T06:59:39.198Z,34.10
2018-06-28T07:01:42.264Z,34.20
2018-06-28T07:03:45.387Z,33.90
2018-06-28T07:05:48.453Z,32.80
2018-06-28T07:07:51.536Z,32.10
2018-06-28T07:09:54.629Z,31.50
2018-06-28T07:11:57.716Z,31.00
2018-06-28T07:14:00.812Z,30.50
2018-06-28T07:16:03.935Z,30.00
2018-06-28T07:18:07.008Z,29.60
2018-06-28T07:20:10.108Z,29.20
2018-06-28T07:22:13.241Z,28.70
2018-06-28T07:24:16.328Z,28.40
2018-06-28T07:26:19.432Z,28.10
2018-06-28T07:28:22.523Z,28.00
2018-06-28T07:32:28.545Z,27.70
2018-06-28T07:34:31.640Z,27.60
2018-06-28T07:36:34.725Z,27.50
2018-06-28T07:38:37.872Z,27.40
2018-06-28T07:40:41.027Z,27.20
2018-06-28T07:42:44.160Z,27.20
2018-06-28T07:44:47.260Z,27.30
2018-06-28T07:46:50.369Z,27.40
2018-06-28T07:48:53.464Z,27.70
2018-06-28T07:52:59.529Z,27.80
2018-06-28T07:55:02.629Z,27.80
2018-06-28T07:57:05.737Z,27.80
2018-06-28T08:01:11.769Z,27.50
2018-06-28T08:03:15.757Z,27.50
2018-06-28T08:05:18.978Z,27.40
2018-06-28T08:09:24.961Z,26.90
2018-06-28T08:11:28.032Z,26.90
2018-06-28T08:13:31.109Z,26.80
2018-06-28T08:15:34.201Z,26.80
2018-06-28T08:17:37.332Z,26.80
2018-06-28T08:19:40.480Z,26.80
2018-06-28T08:21:43.637Z,26.90
2018-06-28T08:25:49.671Z,27.10
2018-06-28T08:27:52.752Z,27.20
2018-06-28T08:29:55.901Z,27.40
2018-06-28T08:31:58.996Z,27.40
2018-06-28T08:34:02.183Z,27.50
2018-06-28T08:36:05.300Z,27.60
2018-06-28T08:38:08.376Z,27.60
2018-06-28T08:40:11.468Z,27.50
2018-06-28T08:42:14.557Z,27.60
2018-06-28T08:44:17.995Z,27.40
2018-06-28T08:48:24.055Z,27.30
2018-06-28T08:52:30.814Z,27.30
2018-06-28T08:54:33.938Z,27.40
2018-06-28T08:56:37.033Z,27.40
2018-06-28T08:58:40.132Z,27.20
2018-06-28T09:00:43.229Z,27.20
2018-06-28T09:02:46.356Z,27.20
2018-06-28T09:06:52.488Z,27.20
2018-06-28T09:08:55.617Z,27.10
2018-06-28T09:13:01.852Z,27.40
2018-06-28T09:15:04.970Z,27.70
2018-06-28T09:19:11.055Z,27.90
2018-06-28T09:23:17.242Z,28.00
2018-06-28T09:25:20.316Z,28.00
2018-06-28T09:27:23.422Z,27.90
2018-06-28T09:29:26.516Z,27.80
2018-06-28T09:31:29.595Z,27.40
2018-06-28T09:33:32.688Z,27.20
2018-06-28T09:35:35.809Z,27.30
2018-06-28T09:37:38.923Z,27.50
2018-06-28T09:39:42.038Z,27.40
2018-06-28T09:41:46.112Z,27.20
2018-06-28T09:43:49.236Z,27.00
2018-06-28T09:45:52.332Z,27.00
2018-06-28T09:47:55.445Z,27.20
2018-06-28T09:49:58.568Z,27.40
2018-06-28T09:52:02.728Z,27.40
2018-06-28T09:54:05.862Z,27.50
2018-06-28T09:56:09.183Z,27.30
2018-06-28T09:58:12.319Z,27.10
2018-06-28T10:00:21.714Z,27.00
2018-06-28T10:02:24.757Z,26.90
2018-06-28T10:04:27.864Z,26.90
2018-06-28T10:06:30.966Z,27.10
2018-06-28T10:08:34.120Z,27.20
2018-06-28T10:10:37.256Z,27.20
2018-06-28T10:12:40.360Z,27.40
2018-06-28T10:14:43.499Z,27.50
2018-06-28T10:16:47.440Z,27.70
2018-06-28T10:20:53.472Z,28.20
2018-06-28T10:22:56.556Z,28.60
2018-06-28T10:24:59.758Z,28.70
2018-06-28T10:27:02.820Z,28.90
2018-06-28T10:29:05.908Z,29.00
2018-06-28T10:31:09.040Z,28.70
2018-06-28T10:33:12.138Z,28.50
2018-06-28T10:35:15.368Z,28.30
2018-06-28T10:37:18.464Z,28.10
2018-06-28T10:39:21.568Z,27.90
2018-06-28T10:41:24.689Z,27.80
2018-06-28T10:43:27.786Z,27.80
2018-06-28T10:45:30.887Z,28.00
2018-06-28T10:47:34.017Z,28.10
2018-06-28T10:49:37.076Z,28.20
2018-06-28T10:51:40.219Z,28.30
2018-06-28T10:53:43.320Z,28.00
2018-06-28T10:55:46.589Z,27.80
2018-06-28T10:57:49.781Z,27.90
2018-06-28T10:59:53.496Z,28.00
2018-06-28T11:01:56.601Z,27.90
2018-06-28T11:03:59.679Z,27.90
2018-06-28T11:06:02.768Z,28.10
2018-06-28T11:08:05.864Z,28.30
2018-06-28T11:10:08.997Z,28.50
2018-06-28T11:12:12.099Z,28.30
2018-06-28T11:14:15.216Z,28.40
2018-06-28T11:16:18.315Z,28.40
2018-06-28T11:18:23.737Z,28.60
2018-06-28T11:20:26.912Z,28.60
2018-06-28T11:22:30.105Z,28.80
2018-06-28T11:24:33.209Z,29.00
2018-06-28T11:26:37.181Z,29.20
2018-06-28T11:28:40.332Z,29.20
2018-06-28T11:30:45.247Z,29.30
2018-06-28T11:34:51.825Z,29.40
2018-06-28T11:38:57.988Z,29.30
2018-06-28T11:41:01.335Z,28.90
2018-06-28T11:43:04.728Z,28.60
2018-06-28T11:45:07.833Z,28.50
2018-06-28T11:47:10.948Z,28.40
2018-06-28T11:49:14.040Z,28.50
2018-06-28T11:51:17.303Z,28.60
2018-06-28T11:53:20.408Z,28.90
2018-06-28T11:57:27.571Z,29.10
2018-06-28T11:59:30.676Z,28.90
2018-06-28T12:01:33.802Z,28.70
2018-06-28T12:05:39.921Z,28.50
2018-06-28T12:07:43.060Z,28.50
2018-06-28T12:09:47.148Z,28.50
2018-06-28T12:11:50.280Z,28.60
2018-06-28T12:13:53.467Z,28.80
2018-06-28T12:15:56.557Z,29.10
2018-06-28T12:17:59.659Z,29.30
2018-06-28T12:20:02.944Z,29.40
2018-06-28T12:22:06.288Z,29.30
2018-06-28T12:24:10.463Z,29.20
2018-06-28T12:26:13.589Z,29.30
2018-06-28T12:28:20.792Z,29.50
2018-06-28T12:30:24.161Z,29.90
2018-06-28T12:32:27.255Z,30.00
2018-06-28T12:34:30.498Z,29.90
2018-06-28T12:36:33.601Z,29.80
2018-06-28T12:38:36.707Z,29.30
2018-06-28T12:40:41.447Z,29.10
2018-06-28T12:42:44.546Z,29.20
2018-06-28T12:44:47.631Z,29.40
2018-06-28T12:48:58.984Z,29.40
2018-06-28T12:51:02.717Z,29.70
2018-06-28T12:53:07.240Z,29.60
2018-06-28T12:55:10.720Z,29.50
2018-06-28T12:57:13.786Z,29.50
2018-06-28T12:59:19.044Z,29.70
2018-06-28T13:01:23.352Z,29.90
2018-06-28T13:03:26.436Z,30.10
2018-06-28T13:05:29.508Z,30.10
2018-06-28T13:07:32.592Z,30.40
2018-06-28T13:09:35.684Z,30.50
2018-06-28T13:11:38.756Z,30.50
2018-06-28T13:13:42.481Z,30.10
2018-06-28T13:15:45.569Z,29.80
2018-06-28T13:17:48.640Z,29.80
2018-06-28T13:19:51.728Z,29.80
2018-06-28T13:21:54.799Z,29.80
2018-06-28T13:23:58.505Z,29.80
2018-06-28T13:26:01.610Z,30.00
2018-06-28T13:28:04.912Z,30.00
2018-06-28T13:30:09.022Z,30.00
2018-06-28T13:32:12.196Z,30.00
2018-06-28T13:34:15.289Z,29.80
2018-06-28T13:36:18.377Z,29.70
2018-06-28T13:38:21.449Z,29.80
2018-06-28T13:40:24.556Z,30.10
2018-06-28T13:42:27.660Z,29.80
2018-06-28T13:44:31.837Z,29.70
2018-06-28T13:46:35.224Z,29.90
2018-06-28T13:48:38.300Z,30.20
2018-06-28T13:50:41.404Z,30.40
2018-06-28T13:52:44.475Z,30.50
2018-06-28T13:54:47.611Z,30.40
2018-06-28T13:58:53.628Z,29.70
2018-06-28T14:00:56.741Z,29.50
2018-06-28T14:03:00.283Z,29.50
2018-06-28T14:05:03.312Z,29.70
2018-06-28T14:07:06.424Z,30.00
2018-06-28T14:09:11.607Z,30.20
2018-06-28T14:11:14.700Z,30.30
2018-06-28T14:13:17.820Z,30.10
2018-06-28T14:15:20.925Z,30.30
2018-06-28T14:17:24.041Z,30.40
2018-06-28T14:19:27.246Z,30.10
2018-06-28T14:21:30.340Z,30.10
2018-06-28T14:23:33.440Z,29.70
2018-06-28T14:25:36.548Z,29.50
2018-06-28T14:29:42.829Z,29.70
2018-06-28T14:31:45.951Z,29.90
2018-06-28T14:33:49.050Z,30.20
2018-06-28T14:35:52.133Z,30.40
2018-06-28T14:37:55.231Z,30.60
2018-06-28T14:39:58.327Z,30.50
2018-06-28T14:42:01.479Z,30.50
2018-06-28T14:44:04.962Z,30.10
2018-06-28T14:46:08.052Z,29.80
2018-06-28T14:48:11.174Z,29.60
2018-06-28T14:50:14.324Z,29.50
2018-06-28T14:52:17.446Z,29.60
2018-06-28T14:54:20.545Z,29.80
2018-06-28T14:56:23.649Z,29.70
2018-06-28T14:58:26.760Z,29.80
2018-06-28T15:00:29.872Z,29.80
2018-06-28T15:02:32.968Z,29.60
2018-06-28T15:04:36.072Z,29.40
2018-06-28T15:06:39.184Z,29.40
2018-06-28T15:08:42.291Z,29.40
2018-06-28T15:10:45.399Z,29.40
2018-06-28T15:12:48.500Z,29.60
2018-06-28T15:14:51.605Z,30.00
2018-06-28T15:16:54.791Z,30.20
2018-06-28T15:19:04.544Z,30.10
2018-06-28T15:21:07.661Z,30.20
2018-06-28T15:23:10.763Z,29.80
2018-06-28T15:25:13.868Z,29.70
2018-06-28T15:27:16.992Z,29.50
2018-06-28T15:29:20.496Z,29.70
2018-06-28T15:31:23.596Z,30.00
2018-06-28T15:33:26.907Z,30.20
2018-06-28T15:35:30.019Z,30.40
2018-06-28T15:37:33.112Z,30.30
2018-06-28T15:39:36.222Z,30.00
2018-06-28T15:41:39.831Z,29.70
2018-06-28T15:43:42.947Z,29.60
2018-06-28T15:45:46.067Z,29.40
2018-06-28T15:49:52.041Z,29.00
2018-06-28T15:51:55.215Z,29.00
2018-06-28T15:53:58.296Z,29.00
2018-06-28T15:56:01.431Z,29.00
2018-06-28T15:58:04.655Z,29.10
2018-06-28T16:02:10.745Z,29.00
2018-06-28T16:04:13.856Z,28.90
2018-06-28T16:08:42.775Z,28.90
2018-06-28T16:10:45.895Z,28.70
2018-06-28T16:14:52.060Z,28.80
2018-06-28T16:18:58.099Z,28.90
2018-06-28T16:21:01.404Z,29.00
2018-06-28T16:23:04.535Z,29.00
2018-06-28T16:25:07.691Z,29.10
2018-06-28T16:27:10.927Z,29.30
2018-06-28T16:29:14.042Z,29.30
2018-06-28T16:31:17.168Z,29.30
2018-06-28T16:33:20.317Z,29.50
2018-06-28T16:35:23.464Z,29.50
2018-06-28T16:37:26.683Z,29.40
2018-06-28T16:39:29.794Z,29.20
2018-06-28T16:41:32.904Z,29.10
2018-06-28T16:43:36.037Z,29.10
2018-06-28T16:45:39.204Z,29.30
2018-06-28T16:47:42.709Z,29.40
2018-06-28T16:49:45.804Z,29.30
2018-06-28T16:51:48.915Z,29.30
2018-06-28T16:53:52.018Z,29.20
2018-06-28T16:55:55.137Z,29.10
2018-06-28T16:57:58.236Z,29.10
2018-06-28T17:00:01.329Z,28.90
2018-06-28T17:02:04.436Z,28.80
2018-06-28T17:04:07.556Z,28.70
2018-06-28T17:06:10.721Z,28.70
2018-06-28T17:08:13.825Z,28.60
2018-06-28T17:10:16.923Z,28.50
2018-06-28T17:12:20.045Z,28.60
2018-06-28T17:14:23.165Z,28.60
2018-06-28T17:18:29.244Z,28.50
2018-06-28T17:22:35.422Z,28.70
2018-06-28T17:24:38.520Z,28.60
2018-06-28T17:26:41.670Z,28.50
2018-06-28T17:28:44.773Z,28.40
2018-06-28T17:30:47.896Z,28.40
2018-06-28T17:32:51.083Z,28.40
2018-06-28T17:34:54.112Z,28.40
2018-06-28T17:39:00.413Z,28.30
2018-06-28T17:41:03.511Z,28.30
2018-06-28T17:43:06.720Z,28.30
2018-06-28T17:45:09.804Z,28.40
2018-06-28T17:47:12.904Z,29.10
2018-06-28T17:49:16.008Z,30.00
2018-06-28T17:51:19.091Z,31.00
2018-06-28T17:55:25.148Z,34.20
2018-06-28T17:57:28.264Z,35.70
2018-06-28T18:01:34.288Z,35.60
2018-06-28T18:07:43.341Z,38.00
2018-06-28T18:09:46.435Z,38.00
2018-06-28T18:11:49.536Z,38.30
2018-06-28T18:13:52.650Z,38.50
2018-06-28T18:15:55.766Z,38.70
2018-06-28T18:17:58.854Z,38.70
2018-06-28T18:20:02.048Z,38.50
2018-06-28T18:22:05.341Z,38.20
2018-06-28T18:24:08.461Z,38.30
2018-06-28T18:26:11.548Z,38.70
2018-06-28T18:28:14.636Z,39.10
2018-06-28T18:30:17.847Z,39.10
2018-06-28T18:32:20.877Z,38.50
2018-06-28T18:34:23.977Z,38.50
2018-06-28T18:36:27.071Z,38.30
2018-06-28T18:40:33.157Z,37.00
2018-06-28T18:42:36.236Z,36.80
2018-06-28T18:44:39.356Z,36.80
2018-06-28T18:46:42.520Z,36.80
2018-06-28T18:48:46.848Z,35.10
2018-06-28T18:50:50.147Z,33.30
2018-06-28T18:54:56.022Z,30.50
2018-06-28T18:56:59.128Z,29.70
2018-06-28T19:01:05.482Z,28.80
2018-06-28T19:03:08.572Z,28.40
2018-06-28T19:05:11.668Z,28.10
2018-06-28T19:07:14.773Z,27.80
2018-06-28T19:09:17.873Z,27.40
2018-06-28T19:11:20.979Z,27.20
2018-06-28T19:13:25.407Z,26.90
2018-06-28T19:15:33.948Z,26.70
2018-06-28T19:17:37.062Z,26.60
2018-06-28T19:19:40.244Z,26.40
2018-06-28T19:21:48.863Z,26.30
2018-06-28T19:23:52.727Z,26.20
2018-06-28T19:25:55.855Z,26.10
2018-06-28T19:27:58.950Z,26.00
2018-06-28T19:30:07.392Z,25.90
2018-06-28T19:32:15.970Z,25.80
2018-06-28T19:36:22.073Z,25.50
2018-06-28T19:38:25.169Z,25.30
2018-06-28T19:40:33.509Z,25.30
2018-06-28T19:42:41.996Z,25.30
2018-06-28T19:44:45.103Z,25.30
2018-06-28T19:46:48.212Z,25.20
2018-06-28T19:48:51.307Z,25.10
2018-06-28T19:51:00.020Z,25.10
2018-06-28T19:53:11.430Z,25.00
2018-06-28T19:55:14.549Z,24.80
2018-06-28T19:59:20.594Z,24.50
2018-06-28T20:01:28.996Z,24.40
2018-06-28T20:03:37.431Z,24.30
2018-06-28T20:05:40.558Z,24.20
2018-06-28T20:07:43.672Z,24.20
2018-06-28T20:09:47.273Z,24.20
2018-06-28T20:11:50.377Z,24.20
2018-06-28T20:13:59.400Z,24.10
2018-06-28T20:16:08.156Z,24.00
2018-06-28T20:18:16.856Z,23.90
2018-06-28T20:20:20.176Z,23.80
2018-06-28T20:22:23.284Z,23.70
2018-06-28T20:24:26.489Z,23.70
2018-06-28T20:26:34.980Z,23.70
2018-06-28T20:28:43.698Z,23.70
2018-06-28T20:30:52.260Z,23.60
2018-06-28T20:33:00.816Z,23.60
2018-06-28T20:35:04.597Z,23.40
2018-06-28T20:37:07.732Z,23.30
2018-06-28T20:39:11.221Z,23.30
2018-06-28T20:41:14.327Z,23.30
2018-06-28T20:43:17.428Z,23.30
2018-06-28T20:45:20.533Z,23.20
2018-06-28T20:47:23.762Z,23.20
2018-06-28T20:49:26.883Z,23.20
2018-06-28T20:51:30.036Z,23.10
2018-06-28T20:53:33.141Z,23.10
2018-06-28T20:55:36.716Z,23.10
2018-06-28T20:57:39.812Z,22.90
2018-06-28T20:59:42.929Z,22.80
2018-06-28T21:01:46.032Z,22.80
2018-06-28T21:03:49.115Z,22.70
2018-06-28T21:05:52.204Z,22.60
2018-06-28T21:07:55.656Z,22.50
2018-06-28T21:09:58.814Z,22.50
2018-06-28T21:14:04.948Z,22.30
2018-06-28T21:16:08.060Z,22.30
2018-06-28T21:18:11.220Z,22.20
2018-06-28T21:20:14.307Z,22.20
2018-06-28T21:22:17.548Z,22.20
2018-06-28T21:24:20.701Z,22.10
2018-06-28T21:26:23.834Z,22.00
2018-06-28T21:28:27.896Z,22.00
2018-06-28T21:30:31.005Z,22.00
2018-06-28T21:32:34.164Z,22.00
2018-06-28T21:34:37.421Z,22.00
2018-06-28T21:36:40.518Z,22.00
2018-06-28T21:38:43.808Z,21.90
2018-06-28T21:40:46.896Z,21.80
2018-06-28T21:42:50.001Z,21.80
2018-06-28T21:44:53.175Z,21.80
2018-06-28T21:46:56.384Z,21.80
2018-06-28T21:48:59.496Z,21.70
2018-06-28T21:51:03.085Z,21.60
2018-06-28T21:53:06.219Z,21.60
2018-06-28T21:55:09.346Z,21.60
2018-06-28T21:57:12.508Z,21.50
2018-06-28T21:59:16.231Z,21.40
2018-06-28T22:01:19.328Z,21.30
2018-06-28T22:03:22.416Z,21.30
2018-06-28T22:05:25.564Z,21.30
2018-06-28T22:07:28.752Z,21.20
2018-06-28T22:09:31.964Z,21.20
2018-06-28T22:11:35.064Z,21.10
2018-06-28T22:13:38.224Z,21.00
2018-06-28T22:15:41.412Z,21.10
2018-06-28T22:17:44.504Z,21.00
2018-06-28T22:19:47.684Z,21.00
2018-06-28T22:21:50.725Z,21.00
2018-06-28T22:23:53.844Z,21.00
2018-06-28T22:25:56.936Z,21.00
2018-06-28T22:28:00.057Z,20.90
2018-06-28T22:30:03.162Z,20.90
2018-06-28T22:32:06.284Z,20.90
2018-06-28T22:34:09.832Z,20.80
2018-06-28T22:36:12.912Z,20.70
2018-06-28T22:40:18.936Z,20.50
2018-06-28T22:42:22.282Z,20.40
2018-06-28T22:44:25.384Z,20.40
2018-06-28T22:46:28.500Z,20.40
2018-06-28T22:48:31.620Z,20.30
2018-06-28T22:50:34.712Z,20.30
2018-06-28T22:54:40.748Z,20.30
2018-06-28T22:56:43.860Z,20.20
2018-06-28T22:58:46.952Z,20.20
2018-06-28T23:00:50.055Z,20.10
2018-06-28T23:02:53.152Z,20.00
2018-06-28T23:04:56.315Z,20.00
2018-06-28T23:06:59.445Z,20.00
2018-06-28T23:09:02.585Z,20.00
2018-06-28T23:11:05.685Z,20.00
2018-06-28T23:13:08.781Z,20.00
2018-06-28T23:15:11.917Z,20.00
2018-06-28T23:17:15.056Z,20.00
2018-06-28T23:19:18.246Z,19.90
2018-06-28T23:21:21.306Z,19.90
2018-06-28T23:23:24.416Z,19.80
2018-06-28T23:25:27.564Z,19.70
2018-06-28T23:27:30.685Z,19.70
2018-06-28T23:29:33.776Z,19.70
2018-06-28T23:31:36.983Z,19.70
2018-06-28T23:33:40.133Z,19.70
2018-06-28T23:35:43.246Z,19.60
2018-06-28T23:37:46.383Z,19.60
2018-06-28T23:39:50.073Z,19.60
2018-06-28T23:41:53.199Z,19.50
2018-06-28T23:43:56.307Z,19.40
2018-06-28T23:45:59.443Z,19.50
2018-06-28T23:48:03.297Z,19.50
2018-06-28T23:50:08.372Z,19.50
2018-06-28T23:52:11.578Z,19.50
2018-06-28T23:54:14.679Z,19.40
2018-06-28T23:56:17.823Z,19.50
2018-06-28T23:58:20.928Z,19.40
